createdAt,value
2023-03-06T00:00:42.548Z,516.00
2023-03-06T00:01:42.517Z,516.00
2023-03-06T00:02:42.477Z,515.00
2023-03-06T00:03:42.468Z,516.00
2023-03-06T00:55:05.261Z,509.00
2023-03-06T00:56:06.202Z,508.00
2023-03-06T00:57:06.201Z,507.00
2023-03-06T00:58:06.175Z,509.00
2023-03-06T00:59:06.149Z,509.00
2023-03-06T01:00:06.143Z,508.00
2023-03-06T01:01:06.129Z,509.00
2023-03-06T01:02:06.125Z,508.00
2023-03-06T01:03:06.060Z,509.00
2023-03-06T01:04:06.043Z,509.00
2023-03-06T01:05:06.019Z,511.00
2023-03-06T01:06:06.158Z,510.00
2023-03-06T01:07:05.982Z,512.00
2023-03-06T01:08:05.961Z,512.00
2023-03-06T01:09:05.950Z,509.00
2023-03-06T01:10:05.916Z,509.00
2023-03-06T01:11:05.943Z,510.00
2023-03-06T01:12:05.875Z,509.00
2023-03-06T01:13:05.857Z,506.00
2023-03-06T01:14:05.844Z,510.00
2023-03-06T01:15:05.833Z,513.00
2023-03-06T01:16:05.843Z,513.00
2023-03-06T01:17:05.799Z,512.00
2023-03-06T01:18:05.763Z,513.00
2023-03-06T01:19:05.745Z,514.00
2023-03-06T01:20:05.752Z,515.00
2023-03-06T01:21:05.706Z,514.00
2023-03-06T01:22:05.688Z,513.00
2023-03-06T01:23:05.662Z,511.00
2023-03-06T01:24:05.656Z,510.00
2023-03-06T01:25:05.648Z,511.00
2023-03-06T01:26:05.614Z,513.00
2023-03-06T01:27:05.612Z,514.00
2023-03-06T01:28:05.571Z,514.00
2023-03-06T01:29:05.546Z,516.00
2023-03-06T01:30:05.524Z,516.00
2023-03-06T01:31:05.569Z,516.00
2023-03-06T01:32:05.658Z,517.00
2023-03-06T01:33:05.474Z,517.00
2023-03-06T01:34:05.471Z,517.00
2023-03-06T01:35:05.457Z,516.00
2023-03-06T01:36:05.439Z,515.00
2023-03-06T01:37:05.418Z,513.00
2023-03-06T01:38:05.399Z,512.00
2023-03-06T01:39:05.385Z,515.00
2023-03-06T01:40:05.374Z,514.00
2023-03-06T01:41:05.353Z,510.00
2023-03-06T01:42:05.334Z,509.00
2023-03-06T01:43:05.348Z,508.00
2023-03-06T01:44:05.306Z,505.00
2023-03-06T01:45:05.319Z,505.00
2023-03-06T01:46:05.384Z,505.00
2023-03-06T01:47:05.249Z,503.00
2023-03-06T01:48:05.235Z,503.00
2023-03-06T01:49:05.210Z,502.00
2023-03-06T01:50:05.209Z,504.00
2023-03-06T01:51:05.186Z,507.00
2023-03-06T01:52:05.164Z,507.00
2023-03-06T01:53:05.151Z,509.00
2023-03-06T01:54:05.140Z,511.00
2023-03-06T01:55:05.113Z,513.00
2023-03-06T01:56:05.102Z,514.00
2023-03-06T01:57:05.087Z,515.00
2023-03-06T01:58:05.059Z,515.00
2023-03-06T01:59:05.071Z,515.00
2023-03-06T02:00:05.030Z,515.00
2023-03-06T02:01:05.107Z,514.00
2023-03-06T02:02:05.061Z,510.00
2023-03-06T02:03:04.979Z,510.00
2023-03-06T02:04:04.966Z,510.00
2023-03-06T02:05:04.958Z,509.00
2023-03-06T02:06:04.928Z,509.00
2023-03-06T02:07:04.908Z,509.00
2023-03-06T02:08:04.894Z,508.00
2023-03-06T02:09:04.872Z,506.00
2023-03-06T02:10:04.861Z,507.00
2023-03-06T02:11:04.841Z,509.00
2023-03-06T02:12:04.833Z,510.00
2023-03-06T02:13:04.815Z,508.00
2023-03-06T02:14:04.812Z,508.00
2023-03-06T02:15:04.799Z,508.00
2023-03-06T02:16:04.770Z,510.00
2023-03-06T02:17:04.747Z,510.00
2023-03-06T02:18:04.737Z,510.00
2023-03-06T02:19:04.724Z,510.00
2023-03-06T02:20:04.715Z,510.00
2023-03-06T02:21:04.689Z,512.00
2023-03-06T02:22:04.664Z,511.00
2023-03-06T02:23:04.643Z,511.00
2023-03-06T02:24:04.627Z,511.00
2023-03-06T02:25:04.606Z,511.00
2023-03-06T02:26:04.601Z,513.00
2023-03-06T02:27:04.602Z,512.00
2023-03-06T02:28:04.556Z,515.00
2023-03-06T02:29:04.531Z,516.00
2023-03-06T02:30:04.511Z,519.00
2023-03-06T02:31:04.599Z,519.00
2023-03-06T02:32:04.667Z,519.00
2023-03-06T02:33:04.461Z,520.00
2023-03-06T02:34:04.444Z,519.00
2023-03-06T02:35:04.431Z,520.00
2023-03-06T02:36:04.413Z,520.00
2023-03-06T02:37:04.402Z,520.00
2023-03-06T02:38:04.387Z,523.00
2023-03-06T02:39:04.367Z,523.00
2023-03-06T02:40:04.361Z,522.00
2023-03-06T02:41:04.346Z,520.00
2023-03-06T02:42:04.334Z,518.00
2023-03-06T02:43:04.327Z,521.00
2023-03-06T02:44:04.311Z,520.00
2023-03-06T02:45:04.336Z,518.00
2023-03-06T02:46:04.323Z,516.00
2023-03-06T02:47:04.329Z,516.00
2023-03-06T02:48:04.277Z,515.00
2023-03-06T02:49:04.257Z,513.00
2023-03-06T02:50:04.247Z,514.00
2023-03-06T02:51:04.218Z,514.00
2023-03-06T02:52:04.225Z,512.00
2023-03-06T02:53:04.203Z,512.00
2023-03-06T02:54:04.180Z,512.00
2023-03-06T02:55:04.166Z,511.00
2023-03-06T02:56:04.141Z,511.00
2023-03-06T02:57:04.135Z,508.00
2023-03-06T02:58:04.105Z,512.00
2023-03-06T02:59:04.102Z,513.00
2023-03-06T03:00:04.085Z,512.00
2023-03-06T03:01:04.053Z,515.00
2023-03-06T03:02:04.035Z,516.00
2023-03-06T03:03:04.040Z,517.00
2023-03-06T03:04:03.994Z,520.00
2023-03-06T03:05:03.980Z,518.00
2023-03-06T03:06:03.961Z,518.00
2023-03-06T03:07:04.762Z,516.00
2023-03-06T03:08:03.931Z,519.00
2023-03-06T03:09:03.905Z,518.00
2023-03-06T03:10:03.900Z,518.00
2023-03-06T03:11:03.876Z,518.00
2023-03-06T03:12:03.866Z,518.00
2023-03-06T03:13:03.843Z,516.00
2023-03-06T03:14:03.818Z,514.00
2023-03-06T03:15:03.801Z,515.00
2023-03-06T03:16:03.820Z,514.00
2023-03-06T03:17:03.773Z,512.00
2023-03-06T03:18:03.751Z,511.00
2023-03-06T03:19:03.755Z,509.00
2023-03-06T03:20:03.733Z,507.00
2023-03-06T03:21:03.701Z,507.00
2023-03-06T03:22:03.686Z,509.00
2023-03-06T03:23:03.666Z,510.00
2023-03-06T03:24:03.646Z,510.00
2023-03-06T03:25:03.632Z,512.00
2023-03-06T03:26:03.615Z,513.00
2023-03-06T03:27:03.599Z,512.00
2023-03-06T03:28:03.579Z,513.00
2023-03-06T03:29:03.564Z,513.00
2023-03-06T03:30:03.545Z,513.00
2023-03-06T03:31:03.578Z,512.00
2023-03-06T03:32:03.552Z,512.00
2023-03-06T03:33:03.483Z,511.00
2023-03-06T03:34:03.461Z,513.00
2023-03-06T03:35:03.487Z,514.00
2023-03-06T03:36:03.431Z,514.00
2023-03-06T03:37:03.411Z,514.00
2023-03-06T03:38:03.401Z,514.00
2023-03-06T03:39:03.382Z,511.00
2023-03-06T03:40:03.368Z,511.00
2023-03-06T03:41:03.353Z,513.00
2023-03-06T03:42:03.329Z,515.00
2023-03-06T03:43:03.314Z,515.00
2023-03-06T03:44:03.285Z,517.00
2023-03-06T03:45:03.297Z,515.00
2023-03-06T03:46:02.269Z,514.00
2023-03-06T03:47:03.239Z,514.00
2023-03-06T03:48:03.229Z,515.00
2023-03-06T03:49:03.210Z,516.00
2023-03-06T03:50:03.186Z,516.00
2023-03-06T03:51:03.226Z,515.00
2023-03-06T03:52:03.146Z,515.00
2023-03-06T03:53:03.194Z,514.00
2023-03-06T03:54:03.112Z,515.00
2023-03-06T03:55:03.092Z,517.00
2023-03-06T03:56:03.083Z,516.00
2023-03-06T03:57:03.066Z,517.00
2023-03-06T03:58:03.047Z,514.00
2023-03-06T03:59:03.039Z,515.00
2023-03-06T04:00:03.031Z,513.00
2023-03-06T04:01:03.006Z,513.00
2023-03-06T04:02:03.011Z,514.00
2023-03-06T04:03:02.987Z,514.00
2023-03-06T04:04:02.987Z,514.00
2023-03-06T04:05:03.082Z,511.00
2023-03-06T04:06:02.949Z,512.00
2023-03-06T04:07:02.963Z,513.00
2023-03-06T04:08:02.928Z,514.00
2023-03-06T04:09:02.920Z,514.00
2023-03-06T04:10:02.914Z,516.00
2023-03-06T04:11:02.946Z,516.00
2023-03-06T04:12:02.903Z,516.00
2023-03-06T04:13:02.907Z,518.00
2023-03-06T04:14:02.874Z,519.00
2023-03-06T04:15:02.865Z,519.00
2023-03-06T04:16:02.941Z,519.00
2023-03-06T04:17:02.842Z,519.00
2023-03-06T04:18:02.838Z,518.00
2023-03-06T04:19:02.828Z,519.00
2023-03-06T04:20:02.827Z,519.00
2023-03-06T04:21:02.809Z,518.00
2023-03-06T04:22:02.807Z,519.00
2023-03-06T04:23:02.807Z,519.00
2023-03-06T04:24:02.771Z,519.00
2023-03-06T04:25:02.758Z,519.00
2023-03-06T04:26:02.759Z,518.00
2023-03-06T04:27:02.749Z,518.00
2023-03-06T04:28:02.744Z,517.00
2023-03-06T04:29:02.726Z,517.00
2023-03-06T04:30:02.719Z,516.00
2023-03-06T04:31:02.845Z,515.00
2023-03-06T04:32:02.773Z,512.00
2023-03-06T04:33:02.683Z,511.00
2023-03-06T04:34:02.663Z,511.00
2023-03-06T04:35:02.663Z,513.00
2023-03-06T04:36:02.649Z,513.00
2023-03-06T04:37:02.634Z,513.00
2023-03-06T04:38:02.637Z,513.00
2023-03-06T04:39:02.708Z,513.00
2023-03-06T04:40:02.576Z,515.00
2023-03-06T04:41:02.554Z,514.00
2023-03-06T04:42:02.543Z,514.00
2023-03-06T04:43:02.533Z,513.00
2023-03-06T04:44:02.545Z,514.00
2023-03-06T04:45:02.506Z,514.00
2023-03-06T04:46:02.562Z,514.00
2023-03-06T04:47:02.501Z,514.00
2023-03-06T04:48:02.460Z,515.00
2023-03-06T04:49:02.488Z,517.00
2023-03-06T04:50:02.470Z,516.00
2023-03-06T04:51:02.423Z,513.00
2023-03-06T04:52:02.421Z,512.00
2023-03-06T04:53:02.402Z,512.00
2023-03-06T04:54:02.399Z,513.00
2023-03-06T04:55:02.432Z,514.00
2023-03-06T04:56:02.363Z,516.00
2023-03-06T04:57:02.347Z,517.00
2023-03-06T04:58:02.346Z,514.00
2023-03-06T04:59:02.317Z,518.00
2023-03-06T05:00:02.336Z,521.00
2023-03-06T05:01:02.368Z,521.00
2023-03-06T05:02:02.338Z,519.00
2023-03-06T05:03:02.280Z,516.00
2023-03-06T05:04:02.237Z,515.00
2023-03-06T05:05:02.232Z,516.00
2023-03-06T05:06:02.236Z,516.00
2023-03-06T05:07:02.197Z,515.00
2023-03-06T05:08:02.179Z,515.00
2023-03-06T05:09:02.197Z,514.00
2023-03-06T05:10:02.179Z,513.00
2023-03-06T05:11:02.160Z,511.00
2023-03-06T06:49:11.900Z,662.00
2023-03-06T07:01:03.719Z,911.00
2023-03-06T09:53:54.929Z,1214.00
2023-03-06T09:59:54.742Z,1156.00
2023-03-06T10:17:54.440Z,874.00
2023-03-06T10:19:54.482Z,828.00
2023-03-06T10:23:01.378Z,811.00
2023-03-06T10:24:54.533Z,816.00
2023-03-06T10:31:54.247Z,811.00
2023-03-06T10:34:54.184Z,822.00
2023-03-06T10:35:54.235Z,824.00
2023-03-06T10:38:54.159Z,828.00
2023-03-06T10:40:54.168Z,820.00
2023-03-06T10:46:54.081Z,807.00
2023-03-06T11:02:54.095Z,836.00
2023-03-06T11:22:54.715Z,827.00
2023-03-06T11:26:54.722Z,747.00
2023-03-06T11:49:54.099Z,728.00
2023-03-06T11:57:54.472Z,746.00
2023-03-06T14:51:48.005Z,1591.00
2023-03-06T15:17:47.076Z,1504.00
2023-03-06T15:18:47.081Z,1498.00
2023-03-06T15:19:47.033Z,1495.00
2023-03-06T15:20:47.035Z,1494.00
2023-03-06T15:21:46.947Z,1491.00
2023-03-06T15:22:46.904Z,1486.00
2023-03-06T15:23:47.049Z,1478.00
2023-03-06T15:25:46.825Z,1467.00
2023-03-06T15:26:46.773Z,1469.00
2023-03-06T15:28:47.550Z,1471.00
2023-03-06T15:30:46.779Z,1463.00
2023-03-06T15:31:46.628Z,1462.00
2023-03-06T15:32:46.577Z,1355.00
2023-03-06T15:33:46.540Z,1332.00
2023-03-06T15:34:46.580Z,1276.00
2023-03-06T15:35:46.487Z,1269.00
2023-03-06T15:36:46.443Z,1262.00
2023-03-06T15:37:46.418Z,1183.00
2023-03-06T15:38:46.397Z,1216.00
2023-03-06T15:39:46.567Z,1230.00
2023-03-06T15:40:46.643Z,1240.00
2023-03-06T15:41:46.297Z,1240.00
2023-03-06T15:42:46.270Z,1242.00
2023-03-06T15:43:46.563Z,1241.00
2023-03-06T15:44:46.206Z,1241.00
2023-03-06T15:45:46.251Z,1245.00
2023-03-06T15:46:47.279Z,1245.00
2023-03-06T15:47:46.156Z,1246.00
2023-03-06T15:48:46.100Z,1243.00
2023-03-06T15:49:46.555Z,1238.00
2023-03-06T15:50:46.172Z,1236.00
2023-03-06T15:51:46.021Z,1234.00
2023-03-06T15:52:45.990Z,1230.00
2023-03-06T15:53:45.953Z,1226.00
2023-03-06T15:54:45.925Z,1223.00
2023-03-06T15:55:45.913Z,1222.00
2023-03-06T15:56:45.865Z,1222.00
2023-03-06T15:57:45.834Z,1222.00
2023-03-06T15:58:45.827Z,1221.00
2023-03-06T15:59:46.073Z,1217.00
2023-03-06T16:00:45.788Z,1215.00
2023-03-06T16:01:45.730Z,1212.00
2023-03-06T16:02:46.066Z,1209.00
2023-03-06T16:03:45.649Z,1207.00
2023-03-06T16:04:45.631Z,1205.00
2023-03-06T16:05:45.596Z,1205.00
2023-03-06T16:06:45.592Z,1203.00
2023-03-06T16:07:45.566Z,1201.00
2023-03-06T16:08:45.504Z,1200.00
2023-03-06T16:09:45.589Z,1195.00
2023-03-06T16:10:45.443Z,1196.00
2023-03-06T16:11:45.433Z,1194.00
2023-03-06T16:12:47.430Z,1187.00
2023-03-06T16:13:45.355Z,1185.00
2023-03-06T16:14:45.360Z,1183.00
2023-03-06T16:15:45.344Z,1184.00
2023-03-06T16:16:45.336Z,1183.00
2023-03-06T16:17:45.245Z,1181.00
2023-03-06T16:18:45.238Z,1177.00
2023-03-06T16:19:45.202Z,1178.00
2023-03-06T16:20:45.345Z,1178.00
2023-03-06T16:21:45.140Z,1175.00
2023-03-06T16:22:45.136Z,1174.00
2023-03-06T16:23:45.066Z,1168.00
2023-03-06T16:24:45.097Z,1164.00
2023-03-06T16:25:47.386Z,1165.00
2023-03-06T16:26:44.979Z,1164.00
2023-03-06T16:27:44.953Z,1163.00
2023-03-06T16:28:44.926Z,1163.00
2023-03-06T16:29:44.905Z,1164.00
2023-03-06T16:30:45.087Z,1163.00
2023-03-06T16:31:44.951Z,1160.00
2023-03-06T16:32:44.894Z,1159.00
2023-03-06T16:33:44.799Z,1158.00
2023-03-06T16:34:44.772Z,1153.00
2023-03-06T16:35:44.851Z,1151.00
2023-03-06T16:36:44.751Z,1148.00
2023-03-06T16:37:44.699Z,1144.00
2023-03-06T16:38:44.702Z,1143.00
2023-03-06T16:39:44.646Z,1135.00
2023-03-06T16:40:44.621Z,1130.00
2023-03-06T16:41:44.584Z,1127.00
2023-03-06T16:42:44.586Z,1125.00
2023-03-06T16:43:44.554Z,1124.00
2023-03-06T16:44:44.503Z,1122.00
2023-03-06T16:45:44.511Z,1120.00
2023-03-06T16:46:44.438Z,1116.00
2023-03-06T16:47:44.419Z,1116.00
2023-03-06T16:48:44.442Z,1115.00
2023-03-06T16:49:44.444Z,1113.00
2023-03-06T16:50:44.346Z,1113.00
2023-03-06T16:51:44.336Z,1113.00
2023-03-06T16:52:44.284Z,1110.00
2023-03-06T16:53:44.279Z,1108.00
2023-03-06T16:54:44.822Z,1105.00
2023-03-06T16:55:44.221Z,1103.00
2023-03-06T16:56:44.195Z,1099.00
2023-03-06T16:57:44.170Z,1102.00
2023-03-06T16:58:44.152Z,1099.00
2023-03-06T16:59:44.122Z,1094.00
2023-03-06T17:00:44.117Z,1089.00
2023-03-06T17:01:44.162Z,1086.00
2023-03-06T17:02:44.098Z,1085.00
2023-03-06T17:03:44.025Z,1081.00
2023-03-06T17:04:44.000Z,1076.00
2023-03-06T17:05:44.188Z,1075.00
2023-03-06T17:06:43.941Z,1074.00
2023-03-06T17:07:43.917Z,1076.00
2023-03-06T17:08:43.937Z,1076.00
2023-03-06T17:09:43.873Z,1073.00
2023-03-06T17:10:43.867Z,1074.00
2023-03-06T17:11:43.811Z,1074.00
2023-03-06T17:12:43.787Z,1074.00
2023-03-06T17:13:43.759Z,1072.00
2023-03-06T17:14:43.728Z,1069.00
2023-03-06T17:15:43.743Z,1061.00
2023-03-06T17:16:43.711Z,1057.00
2023-03-06T17:17:43.657Z,1055.00
2023-03-06T17:18:43.626Z,1051.00
2023-03-06T17:19:43.608Z,1049.00
2023-03-06T17:20:43.585Z,1044.00
2023-03-06T17:21:43.559Z,1042.00
2023-03-06T17:22:43.544Z,1040.00
2023-03-06T17:23:43.516Z,1039.00
2023-03-06T17:24:43.499Z,1039.00
2023-03-06T17:25:43.477Z,1037.00
2023-03-06T17:26:43.493Z,1037.00
2023-03-06T17:27:43.442Z,1035.00
2023-03-06T17:28:43.428Z,1034.00
2023-03-06T17:29:43.424Z,1033.00
2023-03-06T17:30:43.377Z,1032.00
2023-03-06T17:31:43.358Z,1032.00
2023-03-06T17:32:43.367Z,1029.00
2023-03-06T17:33:43.323Z,1025.00
2023-03-06T17:34:43.292Z,1022.00
2023-03-06T17:35:43.314Z,1022.00
2023-03-06T17:36:43.259Z,1021.00
2023-03-06T17:37:43.216Z,1021.00
2023-03-06T17:38:43.194Z,1022.00
2023-03-06T17:39:43.168Z,1025.00
2023-03-06T17:40:43.149Z,1022.00
2023-03-06T17:41:45.947Z,1021.00
2023-03-06T17:42:43.160Z,1019.00
2023-03-06T17:43:43.093Z,1015.00
2023-03-06T17:44:43.070Z,1010.00
2023-03-06T17:45:43.041Z,1004.00
2023-03-06T17:46:43.088Z,1000.00
2023-03-06T17:47:42.995Z,997.00
2023-03-06T17:48:42.965Z,995.00
2023-03-06T17:49:42.939Z,993.00
2023-03-06T17:50:42.916Z,993.00
2023-03-06T17:51:42.893Z,991.00
2023-03-06T17:52:42.912Z,985.00
2023-03-06T17:53:42.845Z,984.00
2023-03-06T17:54:42.848Z,980.00
2023-03-06T17:55:42.845Z,980.00
2023-03-06T17:56:42.779Z,979.00
2023-03-06T17:57:42.759Z,980.00
2023-03-06T17:58:42.791Z,983.00
2023-03-06T17:59:42.708Z,981.00
2023-03-06T18:00:42.682Z,978.00
2023-03-06T18:01:42.696Z,977.00
2023-03-06T18:02:42.676Z,975.00
2023-03-06T18:03:42.667Z,973.00
2023-03-06T18:04:42.633Z,974.00
2023-03-06T18:05:42.597Z,975.00
2023-03-06T18:06:42.567Z,972.00
2023-03-06T18:07:42.546Z,972.00
2023-03-06T18:08:42.566Z,970.00
2023-03-06T18:09:42.541Z,967.00
2023-03-06T18:10:42.567Z,964.00
2023-03-06T18:11:42.472Z,965.00
2023-03-06T18:12:42.704Z,963.00
2023-03-06T18:13:42.451Z,962.00
2023-03-06T18:14:42.449Z,961.00
2023-03-06T18:15:42.394Z,959.00
2023-03-06T18:16:42.496Z,954.00
2023-03-06T18:17:42.348Z,956.00
2023-03-06T18:18:42.324Z,955.00
2023-03-06T18:19:42.311Z,952.00
2023-03-06T18:20:42.289Z,950.00
2023-03-06T18:21:42.256Z,951.00
2023-03-06T18:22:42.235Z,952.00
2023-03-06T18:23:42.217Z,950.00
2023-03-06T18:24:42.196Z,950.00
2023-03-06T18:25:42.178Z,948.00
2023-03-06T18:26:42.147Z,944.00
2023-03-06T18:27:42.152Z,942.00
2023-03-06T18:28:42.135Z,941.00
2023-03-06T18:29:42.084Z,941.00
2023-03-06T18:30:42.094Z,938.00
2023-03-06T18:31:42.264Z,939.00
2023-03-06T18:32:42.119Z,936.00
2023-03-06T18:33:42.000Z,933.00
2023-03-06T18:34:41.972Z,929.00
2023-03-06T18:35:41.987Z,930.00
2023-03-06T18:36:41.924Z,929.00
2023-03-06T18:37:41.894Z,931.00
2023-03-06T18:38:41.901Z,930.00
2023-03-06T18:39:41.855Z,927.00
2023-03-06T18:40:41.848Z,925.00
2023-03-06T18:41:41.818Z,924.00
2023-03-06T18:42:41.800Z,920.00
2023-03-06T18:43:41.826Z,919.00
2023-03-06T18:44:41.764Z,918.00
2023-03-06T18:45:41.735Z,918.00
2023-03-06T18:46:41.723Z,921.00
2023-03-06T18:47:41.676Z,918.00
2023-03-06T18:48:41.645Z,917.00
2023-03-06T18:49:44.102Z,912.00
2023-03-06T18:50:41.589Z,909.00
2023-03-06T18:51:41.575Z,907.00
2023-03-06T18:52:41.539Z,904.00
2023-03-06T18:53:41.568Z,899.00
2023-03-06T18:54:41.493Z,897.00
2023-03-06T18:55:41.463Z,898.00
2023-03-06T18:56:41.437Z,896.00
2023-03-06T18:57:41.441Z,892.00
2023-03-06T18:58:41.490Z,891.00
2023-03-06T18:59:41.356Z,890.00
2023-03-06T19:00:41.465Z,889.00
2023-03-06T19:01:41.304Z,889.00
2023-03-06T19:02:41.318Z,885.00
2023-03-06T19:03:41.289Z,884.00
2023-03-06T19:04:41.241Z,881.00
2023-03-06T19:05:41.210Z,878.00
2023-03-06T19:06:41.185Z,882.00
2023-03-06T19:07:41.192Z,881.00
2023-03-06T19:08:41.204Z,881.00
2023-03-06T19:09:41.120Z,878.00
2023-03-06T19:10:41.100Z,872.00
2023-03-06T19:11:41.074Z,869.00
2023-03-06T19:12:41.057Z,869.00
2023-03-06T19:13:41.046Z,868.00
2023-03-06T19:14:41.025Z,864.00
2023-03-06T19:15:41.010Z,860.00
2023-03-06T19:16:41.042Z,856.00
2023-03-06T19:17:40.978Z,856.00
2023-03-06T19:18:40.999Z,855.00
2023-03-06T19:19:40.982Z,855.00
2023-03-06T19:20:40.942Z,854.00
2023-03-06T19:21:40.921Z,854.00
2023-03-06T19:22:40.903Z,856.00
2023-03-06T19:23:40.895Z,855.00
2023-03-06T19:24:40.869Z,857.00
2023-03-06T19:25:40.856Z,856.00
2023-03-06T19:26:40.823Z,856.00
2023-03-06T19:27:40.798Z,853.00
2023-03-06T19:28:40.794Z,849.00
2023-03-06T19:29:40.758Z,849.00
2023-03-06T19:30:40.736Z,847.00
2023-03-06T19:31:40.768Z,846.00
2023-03-06T19:32:40.720Z,845.00
2023-03-06T19:33:40.693Z,844.00
2023-03-06T19:34:40.693Z,845.00
2023-03-06T19:35:40.708Z,845.00
2023-03-06T19:36:40.750Z,843.00
2023-03-06T19:37:40.618Z,842.00
2023-03-06T19:38:40.594Z,840.00
2023-03-06T19:39:40.581Z,838.00
2023-03-06T19:40:40.560Z,839.00
2023-03-06T19:41:40.539Z,839.00
2023-03-06T19:42:40.519Z,836.00
2023-03-06T19:43:40.500Z,834.00
2023-03-06T19:44:40.487Z,832.00
2023-03-06T19:45:40.478Z,832.00
2023-03-06T19:46:40.428Z,832.00
2023-03-06T19:47:40.464Z,831.00
2023-03-06T19:48:40.385Z,830.00
2023-03-06T19:49:40.374Z,827.00
2023-03-06T19:50:40.361Z,827.00
2023-03-06T19:51:40.322Z,826.00
2023-03-06T19:52:40.281Z,825.00
2023-03-06T19:53:40.285Z,824.00
2023-03-06T19:54:40.243Z,825.00
2023-03-06T19:55:40.213Z,825.00
2023-03-06T19:56:40.217Z,827.00
2023-03-06T19:57:40.166Z,824.00
2023-03-06T19:58:40.188Z,823.00
2023-03-06T19:59:40.117Z,820.00
2023-03-06T20:00:40.093Z,819.00
2023-03-06T20:01:40.168Z,817.00
2023-03-06T20:02:40.053Z,817.00
2023-03-06T20:03:40.054Z,814.00
2023-03-06T20:04:40.051Z,814.00
2023-03-06T20:05:39.976Z,813.00
2023-03-06T20:06:39.994Z,808.00
2023-03-06T20:07:39.943Z,809.00
2023-03-06T20:08:39.978Z,809.00
2023-03-06T20:09:39.902Z,809.00
2023-03-06T20:10:39.881Z,808.00
2023-03-06T20:11:39.860Z,806.00
2023-03-06T20:12:39.847Z,806.00
2023-03-06T20:13:46.896Z,805.00
2023-03-06T20:14:39.810Z,803.00
2023-03-06T20:15:39.805Z,802.00
2023-03-06T20:16:39.754Z,803.00
2023-03-06T20:17:39.771Z,799.00
2023-03-06T20:18:39.720Z,797.00
2023-03-06T20:19:39.701Z,794.00
2023-03-06T20:20:39.748Z,795.00
2023-03-06T20:21:39.643Z,792.00
2023-03-06T20:22:39.639Z,790.00
2023-03-06T20:23:39.601Z,792.00
2023-03-06T20:24:39.561Z,789.00
2023-03-06T20:25:39.545Z,786.00
2023-03-06T20:26:39.556Z,784.00
2023-03-06T20:27:39.502Z,784.00
2023-03-06T20:28:39.531Z,783.00
2023-03-06T20:29:39.457Z,782.00
2023-03-06T20:30:39.650Z,783.00
2023-03-06T20:31:39.416Z,785.00
2023-03-06T20:32:39.435Z,784.00
2023-03-06T20:33:39.369Z,785.00
2023-03-06T20:34:39.359Z,783.00
2023-03-06T20:35:39.372Z,782.00
2023-03-06T20:36:39.313Z,780.00
2023-03-06T20:37:39.288Z,779.00
2023-03-06T20:38:39.293Z,777.00
2023-03-06T20:39:39.242Z,778.00
2023-03-06T20:40:39.345Z,777.00
2023-03-06T20:41:39.214Z,777.00
2023-03-06T20:42:39.186Z,777.00
2023-03-06T20:43:39.168Z,775.00
2023-03-06T20:44:39.153Z,773.00
2023-03-06T20:45:39.140Z,771.00
2023-03-06T20:46:39.192Z,769.00
2023-03-06T20:47:39.136Z,771.00
2023-03-06T20:48:39.084Z,771.00
2023-03-06T20:49:39.068Z,770.00
2023-03-06T20:50:39.051Z,767.00
2023-03-06T20:51:39.070Z,765.00
2023-03-06T20:52:39.007Z,764.00
2023-03-06T20:53:38.984Z,763.00
2023-03-06T20:54:38.988Z,764.00
2023-03-06T20:55:38.942Z,765.00
2023-03-06T20:56:38.912Z,761.00
2023-03-06T20:57:38.912Z,758.00
2023-03-06T20:58:38.863Z,758.00
2023-03-06T20:59:38.841Z,756.00
2023-03-06T21:00:38.814Z,758.00
2023-03-06T21:01:38.839Z,755.00
2023-03-06T21:02:38.799Z,753.00
2023-03-06T21:03:38.758Z,753.00
2023-03-06T21:04:38.783Z,750.00
2023-03-06T21:05:38.726Z,752.00
2023-03-06T21:06:38.711Z,751.00
2023-03-06T21:07:38.711Z,753.00
2023-03-06T21:08:38.664Z,750.00
2023-03-06T21:09:38.653Z,747.00
2023-03-06T21:10:38.661Z,747.00
2023-03-06T21:11:38.590Z,746.00
2023-03-06T21:12:38.585Z,747.00
2023-03-06T21:13:38.548Z,745.00
2023-03-06T21:14:38.530Z,742.00
2023-03-06T21:15:38.508Z,740.00
2023-03-06T21:16:38.479Z,737.00
2023-03-06T21:17:38.464Z,738.00
2023-03-06T21:18:38.461Z,740.00
2023-03-06T21:19:38.427Z,738.00
2023-03-06T21:20:38.406Z,733.00
2023-03-06T21:21:38.386Z,731.00
2023-03-06T21:22:38.368Z,728.00
2023-03-06T21:23:38.343Z,727.00
2023-03-06T21:24:38.315Z,725.00
2023-03-06T21:25:38.296Z,725.00
2023-03-06T21:26:38.309Z,727.00
2023-03-06T21:27:38.253Z,729.00
2023-03-06T21:28:38.235Z,729.00
2023-03-06T21:29:38.246Z,727.00
2023-03-06T21:30:38.201Z,725.00
2023-03-06T21:31:38.183Z,724.00
2023-03-06T21:32:38.287Z,723.00
2023-03-06T21:33:38.138Z,722.00
2023-03-06T21:34:38.125Z,718.00
2023-03-06T21:35:38.126Z,717.00
2023-03-06T21:36:38.116Z,717.00
2023-03-06T21:37:38.062Z,717.00
2023-03-06T21:38:38.042Z,716.00
2023-03-06T21:39:38.029Z,715.00
2023-03-06T21:40:38.002Z,714.00
2023-03-06T21:41:38.036Z,714.00
2023-03-06T21:42:38.090Z,716.00
2023-03-06T21:43:37.957Z,716.00
2023-03-06T21:44:37.975Z,715.00
2023-03-06T21:45:37.965Z,712.00
2023-03-06T21:46:37.911Z,708.00
2023-03-06T21:47:37.880Z,704.00
2023-03-06T21:48:37.866Z,704.00
2023-03-06T21:49:37.858Z,702.00
2023-03-06T21:50:37.828Z,701.00
2023-03-06T21:51:37.811Z,700.00
2023-03-06T21:52:37.798Z,698.00
2023-03-06T21:53:37.776Z,694.00
2023-03-06T21:54:37.738Z,696.00
2023-03-06T21:55:37.723Z,700.00
2023-03-06T21:56:37.705Z,698.00
2023-03-06T21:57:37.681Z,698.00
2023-03-06T21:58:37.696Z,700.00
2023-03-06T21:59:37.637Z,703.00
2023-03-06T22:00:37.690Z,697.00
2023-03-06T22:01:37.604Z,694.00
2023-03-06T22:02:37.574Z,694.00
2023-03-06T22:03:37.553Z,696.00
2023-03-06T22:04:37.532Z,695.00
2023-03-06T22:05:37.513Z,694.00
2023-03-06T22:06:37.496Z,695.00
2023-03-06T22:07:37.475Z,693.00
2023-03-06T22:08:37.458Z,689.00
2023-03-06T22:09:37.452Z,690.00
2023-03-06T22:10:37.422Z,693.00
2023-03-06T22:11:37.438Z,689.00
2023-03-06T22:12:37.389Z,686.00
2023-03-06T22:13:37.468Z,686.00
2023-03-06T22:14:37.411Z,684.00
2023-03-06T22:15:37.332Z,681.00
2023-03-06T22:16:37.388Z,683.00
2023-03-06T22:17:37.297Z,681.00
2023-03-06T22:18:37.295Z,680.00
2023-03-06T22:19:37.303Z,679.00
2023-03-06T22:20:37.254Z,678.00
2023-03-06T22:21:37.247Z,679.00
2023-03-06T22:22:37.258Z,681.00
2023-03-06T22:23:37.240Z,680.00
2023-03-06T22:24:37.198Z,678.00
2023-03-06T22:25:37.185Z,678.00
2023-03-06T22:26:37.173Z,676.00
2023-03-06T22:27:37.154Z,679.00
2023-03-06T22:28:37.148Z,682.00
2023-03-06T22:29:37.110Z,682.00
2023-03-06T22:30:37.116Z,680.00
2023-03-06T22:31:39.331Z,681.00
2023-03-06T22:32:37.129Z,681.00
2023-03-06T22:33:37.077Z,681.00
2023-03-06T22:34:37.011Z,677.00
2023-03-06T22:35:37.060Z,679.00
2023-03-06T22:36:36.979Z,678.00
2023-03-06T22:37:36.966Z,678.00
2023-03-06T22:38:36.956Z,676.00
2023-03-06T22:39:36.947Z,674.00
2023-03-06T22:40:36.913Z,672.00
2023-03-06T22:41:36.900Z,670.00
2023-03-06T22:42:36.909Z,670.00
2023-03-06T22:43:36.869Z,670.00
2023-03-06T22:44:36.854Z,673.00
2023-03-06T22:45:36.852Z,672.00
2023-03-06T22:46:36.831Z,671.00
2023-03-06T22:47:36.810Z,672.00
2023-03-06T22:48:36.777Z,675.00
2023-03-06T22:49:36.772Z,676.00
2023-03-06T22:50:36.726Z,678.00
2023-03-06T22:51:36.709Z,674.00
2023-03-06T22:52:36.696Z,673.00
2023-03-06T22:53:36.682Z,673.00
2023-03-06T22:54:36.682Z,672.00
2023-03-06T22:55:36.663Z,672.00
2023-03-06T22:56:36.642Z,670.00
2023-03-06T22:57:36.620Z,670.00
2023-03-06T22:58:36.582Z,670.00
2023-03-06T22:59:36.574Z,668.00
2023-03-06T23:00:36.605Z,664.00
2023-03-06T23:01:36.634Z,665.00
2023-03-06T23:02:36.589Z,666.00